sensor_id;sensor_type;location;lat;lon;timestamp;pressure;altitude;pressure_sealevel;temperature;humidity
57572;BME280;44459;43.522;24.470;2023-05-12T00:01:24;100553.78;;;9.76;76.63
57572;BME280;44459;43.522;24.470;2023-05-12T00:03:49;100552.03;;;9.75;76.12
57572;BME280;44459;43.522;24.470;2023-05-12T00:06:18;100562.59;;;9.78;76.37
57572;BME280;44459;43.522;24.470;2023-05-12T00:08:43;100556.41;;;9.76;76.28
57572;BME280;44459;43.522;24.470;2023-05-12T00:11:08;100551.19;;;9.79;76.53
57572;BME280;44459;43.522;24.470;2023-05-12T00:13:34;100555.63;;;9.82;76.04
57572;BME280;44459;43.522;24.470;2023-05-12T00:16:01;100552.06;;;9.78;76.29
57572;BME280;44459;43.522;24.470;2023-05-12T00:18:26;100559.16;;;9.84;75.82
57572;BME280;44459;43.522;24.470;2023-05-12T00:20:53;100557.34;;;9.80;75.72
57572;BME280;44459;43.522;24.470;2023-05-12T00:23:19;100563.59;;;9.86;75.40
57572;BME280;44459;43.522;24.470;2023-05-12T00:25:44;100560.91;;;9.83;75.34
57572;BME280;44459;43.522;24.470;2023-05-12T00:28:10;100561.84;;;9.85;75.45
57572;BME280;44459;43.522;24.470;2023-05-12T00:30:35;100554.75;;;9.83;75.10
57572;BME280;44459;43.522;24.470;2023-05-12T00:33:01;100552.97;;;9.80;75.60
57572;BME280;44459;43.522;24.470;2023-05-12T00:35:27;100561.84;;;9.85;75.02
57572;BME280;44459;43.522;24.470;2023-05-12T00:37:52;100558.31;;;9.85;75.13
57572;BME280;44459;43.522;24.470;2023-05-12T00:40:18;100560.94;;;9.86;74.54
57572;BME280;44459;43.522;24.470;2023-05-12T00:42:43;100565.38;;;9.87;74.51
57572;BME280;44459;43.522;24.470;2023-05-12T00:45:09;100553.00;;;9.83;74.62
57572;BME280;44459;43.522;24.470;2023-05-12T00:47:35;100570.63;;;9.87;74.19
57572;BME280;44459;43.522;24.470;2023-05-12T00:50:02;100566.25;;;9.88;74.47
57572;BME280;44459;43.522;24.470;2023-05-12T00:52:28;100567.09;;;9.85;74.23
57572;BME280;44459;43.522;24.470;2023-05-12T00:54:54;100561.84;;;9.87;74.62
57572;BME280;44459;43.522;24.470;2023-05-12T00:57:21;100558.31;;;9.85;74.86
57572;BME280;44459;43.522;24.470;2023-05-12T00:59:46;100567.88;;;9.80;74.29
57572;BME280;44459;43.522;24.470;2023-05-12T01:02:12;100573.19;;;9.83;74.22
57572;BME280;44459;43.522;24.470;2023-05-12T01:04:38;100564.41;;;9.82;74.17
57572;BME280;44459;43.522;24.470;2023-05-12T01:07:18;100569.66;;;9.82;73.93
57572;BME280;44459;43.522;24.470;2023-05-12T01:09:44;100568.78;;;9.79;74.03
57572;BME280;44459;43.522;24.470;2023-05-12T01:12:09;100567.91;;;9.81;73.69
57572;BME280;44459;43.522;24.470;2023-05-12T01:14:35;100566.19;;;9.83;73.83
57572;BME280;44459;43.522;24.470;2023-05-12T01:17:02;100575.03;;;9.87;73.70
57572;BME280;44459;43.522;24.470;2023-05-12T01:20:07;100576.75;;;9.85;73.34
57572;BME280;44459;43.522;24.470;2023-05-12T01:22:33;100578.44;;;9.78;73.49
57572;BME280;44459;43.522;24.470;2023-05-12T01:25:03;100575.84;;;9.83;73.65
57572;BME280;44459;43.522;24.470;2023-05-12T01:27:29;100569.63;;;9.78;73.21
57572;BME280;44459;43.522;24.470;2023-05-12T01:29:58;100575.84;;;9.81;72.99
57572;BME280;44459;43.522;24.470;2023-05-12T01:32:24;100574.94;;;9.81;73.12
57572;BME280;44459;43.522;24.470;2023-05-12T01:34:50;100588.97;;;9.80;73.24
57572;BME280;44459;43.522;24.470;2023-05-12T01:37:16;100576.72;;;9.82;73.21
57572;BME280;44459;43.522;24.470;2023-05-12T01:39:41;100579.31;;;9.79;73.16
57572;BME280;44459;43.522;24.470;2023-05-12T01:42:07;100567.88;;;9.78;73.01
57572;BME280;44459;43.522;24.470;2023-05-12T01:44:32;100566.94;;;9.76;72.76
57572;BME280;44459;43.522;24.470;2023-05-12T01:46:58;100575.72;;;9.74;73.14
57572;BME280;44459;43.522;24.470;2023-05-12T01:49:23;100571.25;;;9.70;73.23
57572;BME280;44459;43.522;24.470;2023-05-12T01:51:49;100573.06;;;9.74;72.78
57572;BME280;44459;43.522;24.470;2023-05-12T01:54:14;100576.66;;;9.77;72.96
57572;BME280;44459;43.522;24.470;2023-05-12T01:56:40;100568.75;;;9.77;72.65
57572;BME280;44459;43.522;24.470;2023-05-12T01:59:06;100573.13;;;9.75;72.17
57572;BME280;44459;43.522;24.470;2023-05-12T02:01:32;100571.34;;;9.76;72.35
57572;BME280;44459;43.522;24.470;2023-05-12T02:03:58;100570.53;;;9.78;71.99
57572;BME280;44459;43.522;24.470;2023-05-12T02:06:24;100567.06;;;9.84;72.20
57572;BME280;44459;43.522;24.470;2023-05-12T02:08:50;100575.75;;;9.77;72.19
57572;BME280;44459;43.522;24.470;2023-05-12T02:11:16;100577.50;;;9.76;72.46
57572;BME280;44459;43.522;24.470;2023-05-12T02:13:41;100565.13;;;9.71;71.76
57572;BME280;44459;43.522;24.470;2023-05-12T02:16:10;100577.53;;;9.78;72.26
57572;BME280;44459;43.522;24.470;2023-05-12T02:18:36;100582.81;;;9.79;72.06
57572;BME280;44459;43.522;24.470;2023-05-12T02:21:01;100579.28;;;9.77;72.10
57572;BME280;44459;43.522;24.470;2023-05-12T02:23:27;100568.75;;;9.77;72.10
57572;BME280;44459;43.522;24.470;2023-05-12T02:25:52;100582.78;;;9.76;72.04
57572;BME280;44459;43.522;24.470;2023-05-12T02:28:18;100578.28;;;9.69;72.38
57572;BME280;44459;43.522;24.470;2023-05-12T02:30:44;100574.69;;;9.66;72.81
57572;BME280;44459;43.522;24.470;2023-05-12T02:33:11;100577.25;;;9.59;73.31
57572;BME280;44459;43.522;24.470;2023-05-12T02:35:36;100574.66;;;9.63;73.10
57572;BME280;44459;43.522;24.470;2023-05-12T02:38:02;100568.50;;;9.62;73.25
57572;BME280;44459;43.522;24.470;2023-05-12T02:40:29;100586.94;;;9.60;73.29
57572;BME280;44459;43.522;24.470;2023-05-12T02:42:54;100586.00;;;9.57;73.47
57572;BME280;44459;43.522;24.470;2023-05-12T02:45:20;100584.19;;;9.54;73.79
57572;BME280;44459;43.522;24.470;2023-05-12T02:47:45;100594.81;;;9.57;73.83
57572;BME280;44459;43.522;24.470;2023-05-12T02:50:10;100579.00;;;9.59;74.21
57572;BME280;44459;43.522;24.470;2023-05-12T02:52:36;100599.31;;;9.65;73.85
57572;BME280;44459;43.522;24.470;2023-05-12T02:55:01;100600.22;;;9.67;73.91
57572;BME280;44459;43.522;24.470;2023-05-12T02:57:27;100599.31;;;9.65;74.40
57572;BME280;44459;43.522;24.470;2023-05-12T02:59:58;100594.84;;;9.62;74.20
57572;BME280;44459;43.522;24.470;2023-05-12T03:02:24;100597.47;;;9.60;74.10
57572;BME280;44459;43.522;24.470;2023-05-12T03:04:49;100612.50;;;9.65;74.54
57572;BME280;44459;43.522;24.470;2023-05-12T03:07:15;100604.50;;;9.61;74.82
57572;BME280;44459;43.522;24.470;2023-05-12T03:09:40;100600.03;;;9.56;74.88
57572;BME280;44459;43.522;24.470;2023-05-12T03:12:06;100600.94;;;9.58;75.29
57572;BME280;44459;43.522;24.470;2023-05-12T03:14:32;100606.16;;;9.53;75.30
57572;BME280;44459;43.522;24.470;2023-05-12T03:16:57;100608.78;;;9.55;75.54
57572;BME280;44459;43.522;24.470;2023-05-12T03:19:23;100611.44;;;9.55;75.52
57572;BME280;44459;43.522;24.470;2023-05-12T03:21:48;100610.63;;;9.59;75.87
57572;BME280;44459;43.522;24.470;2023-05-12T03:24:13;100617.72;;;9.63;76.67
57572;BME280;44459;43.522;24.470;2023-05-12T03:26:39;100618.56;;;9.60;76.12
57572;BME280;44459;43.522;24.470;2023-05-12T03:29:05;100627.41;;;9.64;76.34
57572;BME280;44459;43.522;24.470;2023-05-12T03:31:30;100631.75;;;9.60;76.78
57572;BME280;44459;43.522;24.470;2023-05-12T03:33:56;100631.72;;;9.59;77.23
57572;BME280;44459;43.522;24.470;2023-05-12T03:36:21;100626.44;;;9.57;76.43
57572;BME280;44459;43.522;24.470;2023-05-12T03:38:47;100637.78;;;9.53;76.40
57572;BME280;44459;43.522;24.470;2023-05-12T03:41:13;100634.19;;;9.50;76.66
57572;BME280;44459;43.522;24.470;2023-05-12T03:43:38;100636.03;;;9.54;77.10
57572;BME280;44459;43.522;24.470;2023-05-12T03:46:04;100643.09;;;9.56;77.27
57572;BME280;44459;43.522;24.470;2023-05-12T03:48:30;100643.94;;;9.55;77.31
57572;BME280;44459;43.522;24.470;2023-05-12T03:50:55;100647.50;;;9.57;77.60
57572;BME280;44459;43.522;24.470;2023-05-12T03:53:21;100639.53;;;9.54;77.19
57572;BME280;44459;43.522;24.470;2023-05-12T03:55:46;100652.84;;;9.60;77.34
57572;BME280;44459;43.522;24.470;2023-05-12T03:58:12;100658.19;;;9.67;77.60
57572;BME280;44459;43.522;24.470;2023-05-12T04:00:37;100668.69;;;9.65;77.40
57572;BME280;44459;43.522;24.470;2023-05-12T04:03:03;100666.09;;;9.67;77.92
57572;BME280;44459;43.522;24.470;2023-05-12T04:05:28;100665.06;;;9.57;76.94
57572;BME280;44459;43.522;24.470;2023-05-12T04:07:54;100668.66;;;9.62;77.54
57572;BME280;44459;43.522;24.470;2023-05-12T04:10:19;100671.31;;;9.64;78.19
57572;BME280;44459;43.522;24.470;2023-05-12T04:12:44;100667.81;;;9.63;77.92
57572;BME280;44459;43.522;24.470;2023-05-12T04:15:10;100665.13;;;9.60;77.96
57572;BME280;44459;43.522;24.470;2023-05-12T04:17:35;100670.34;;;9.57;77.36
57572;BME280;44459;43.522;24.470;2023-05-12T04:20:01;100669.59;;;9.64;78.10
57572;BME280;44459;43.522;24.470;2023-05-12T04:22:26;100675.78;;;9.68;78.08
57572;BME280;44459;43.522;24.470;2023-05-12T04:24:52;100671.34;;;9.65;77.74
57572;BME280;44459;43.522;24.470;2023-05-12T04:27:17;100678.44;;;9.68;78.41
57572;BME280;44459;43.522;24.470;2023-05-12T04:29:43;100681.81;;;9.62;78.08
57572;BME280;44459;43.522;24.470;2023-05-12T04:32:08;100684.59;;;9.68;78.72
57572;BME280;44459;43.522;24.470;2023-05-12T04:34:34;100677.50;;;9.66;78.61
57572;BME280;44459;43.522;24.470;2023-05-12T04:37:00;100677.53;;;9.67;78.54
57572;BME280;44459;43.522;24.470;2023-05-12T04:39:27;100689.97;;;9.74;78.87
57572;BME280;44459;43.522;24.470;2023-05-12T04:41:52;100684.66;;;9.73;78.42
57572;BME280;44459;43.522;24.470;2023-05-12T04:44:18;100690.81;;;9.72;78.34
57572;BME280;44459;43.522;24.470;2023-05-12T04:46:43;100687.34;;;9.76;78.28
57572;BME280;44459;43.522;24.470;2023-05-12T04:49:09;100684.81;;;9.82;78.41
57572;BME280;44459;43.522;24.470;2023-05-12T04:51:35;100693.59;;;9.81;78.57
57572;BME280;44459;43.522;24.470;2023-05-12T04:54:09;100691.75;;;9.77;78.28
57572;BME280;44459;43.522;24.470;2023-05-12T04:56:35;100681.25;;;9.80;78.99
57572;BME280;44459;43.522;24.470;2023-05-12T04:59:00;100683.94;;;9.83;79.10
57572;BME280;44459;43.522;24.470;2023-05-12T05:01:26;100696.41;;;9.91;78.49
57572;BME280;44459;43.522;24.470;2023-05-12T05:03:51;100691.22;;;9.97;79.81
57572;BME280;44459;43.522;24.470;2023-05-12T05:06:17;100687.84;;;10.07;78.83
57572;BME280;44459;43.522;24.470;2023-05-12T05:08:42;100695.09;;;10.19;78.21
57572;BME280;44459;43.522;24.470;2023-05-12T05:11:08;100692.59;;;10.28;77.89
57572;BME280;44459;43.522;24.470;2023-05-12T05:13:33;100687.31;;;10.27;77.51
57572;BME280;44459;43.522;24.470;2023-05-12T05:15:59;100699.81;;;10.40;77.20
57572;BME280;44459;43.522;24.470;2023-05-12T05:18:24;100699.81;;;10.40;77.09
57572;BME280;44459;43.522;24.470;2023-05-12T05:20:50;100702.56;;;10.47;77.56
57572;BME280;44459;43.522;24.470;2023-05-12T05:23:15;100695.59;;;10.55;77.12
57572;BME280;44459;43.522;24.470;2023-05-12T05:25:41;100695.84;;;10.72;78.30
57572;BME280;44459;43.522;24.470;2023-05-12T05:28:06;100694.19;;;10.79;76.76
57572;BME280;44459;43.522;24.470;2023-05-12T05:30:32;100690.72;;;10.84;76.10
57572;BME280;44459;43.522;24.470;2023-05-12T05:32:57;100702.13;;;10.82;75.80
57572;BME280;44459;43.522;24.470;2023-05-12T05:35:23;100700.41;;;10.85;76.04
57572;BME280;44459;43.522;24.470;2023-05-12T05:37:48;100704.91;;;10.92;76.49
57572;BME280;44459;43.522;24.470;2023-05-12T05:40:17;100699.50;;;10.83;77.09
57572;BME280;44459;43.522;24.470;2023-05-12T05:42:43;100703.75;;;10.71;76.69
57572;BME280;44459;43.522;24.470;2023-05-12T05:45:09;100709.06;;;10.72;78.63
57572;BME280;44459;43.522;24.470;2023-05-12T05:47:35;100714.22;;;10.66;78.09
57572;BME280;44459;43.522;24.470;2023-05-12T05:50:02;100715.16;;;10.70;77.79
57572;BME280;44459;43.522;24.470;2023-05-12T05:52:28;100714.34;;;10.72;78.16
57572;BME280;44459;43.522;24.470;2023-05-12T05:54:53;100721.38;;;10.73;78.98
57572;BME280;44459;43.522;24.470;2023-05-12T05:57:18;100724.94;;;10.77;77.92
57572;BME280;44459;43.522;24.470;2023-05-12T05:59:44;100720.63;;;10.83;78.14
57572;BME280;44459;43.522;24.470;2023-05-12T06:02:09;100730.31;;;10.83;78.37
57572;BME280;44459;43.522;24.470;2023-05-12T06:04:35;100720.69;;;10.86;79.13
57572;BME280;44459;43.522;24.470;2023-05-12T06:07:00;100728.78;;;11.00;78.69
57572;BME280;44459;43.522;24.470;2023-05-12T06:09:26;100731.50;;;11.06;78.47
57572;BME280;44459;43.522;24.470;2023-05-12T06:11:51;100725.34;;;11.08;78.16
57572;BME280;44459;43.522;24.470;2023-05-12T06:14:16;100730.69;;;11.15;77.27
57572;BME280;44459;43.522;24.470;2023-05-12T06:16:42;100731.72;;;11.24;78.32
57572;BME280;44459;43.522;24.470;2023-05-12T06:19:07;100725.53;;;11.24;77.24
57572;BME280;44459;43.522;24.470;2023-05-12T06:21:33;100734.41;;;11.32;77.04
57572;BME280;44459;43.522;24.470;2023-05-12T06:23:59;100730.84;;;11.27;76.53
57572;BME280;44459;43.522;24.470;2023-05-12T06:26:24;100742.44;;;11.38;77.06
57572;BME280;44459;43.522;24.470;2023-05-12T06:28:49;100737.25;;;11.50;76.69
57572;BME280;44459;43.522;24.470;2023-05-12T06:31:15;100740.06;;;11.65;75.30
57572;BME280;44459;43.522;24.470;2023-05-12T06:33:40;100738.28;;;11.64;74.11
57572;BME280;44459;43.522;24.470;2023-05-12T06:36:06;100750.00;;;11.86;75.20
57572;BME280;44459;43.522;24.470;2023-05-12T06:38:32;100747.41;;;11.90;73.09
57572;BME280;44459;43.522;24.470;2023-05-12T06:40:57;100749.25;;;12.05;73.56
57572;BME280;44459;43.522;24.470;2023-05-12T06:43:22;100751.97;;;12.09;72.83
57572;BME280;44459;43.522;24.470;2023-05-12T06:45:48;100749.38;;;12.14;73.10
57572;BME280;44459;43.522;24.470;2023-05-12T06:48:13;100752.13;;;12.28;74.00
57572;BME280;44459;43.522;24.470;2023-05-12T06:50:39;100743.34;;;12.38;72.38
57572;BME280;44459;43.522;24.470;2023-05-12T06:53:04;100745.16;;;12.42;72.01
57572;BME280;44459;43.522;24.470;2023-05-12T06:55:32;100746.03;;;12.41;73.28
57572;BME280;44459;43.522;24.470;2023-05-12T06:57:57;100746.03;;;12.44;72.72
57572;BME280;44459;43.522;24.470;2023-05-12T07:00:24;100751.28;;;12.35;72.35
57572;BME280;44459;43.522;24.470;2023-05-12T07:02:49;100750.47;;;12.46;73.01
57572;BME280;44459;43.522;24.470;2023-05-12T07:05:15;100750.50;;;12.54;72.50
57572;BME280;44459;43.522;24.470;2023-05-12T07:07:40;100747.81;;;12.42;71.69
57572;BME280;44459;43.522;24.470;2023-05-12T07:10:06;100741.59;;;12.43;70.79
57572;BME280;44459;43.522;24.470;2023-05-12T07:12:32;100744.28;;;12.44;71.10
57572;BME280;44459;43.522;24.470;2023-05-12T07:14:58;100737.22;;;12.42;70.25
57572;BME280;44459;43.522;24.470;2023-05-12T07:17:23;100751.44;;;12.56;70.16
57572;BME280;44459;43.522;24.470;2023-05-12T07:19:49;100744.38;;;12.59;68.64
57572;BME280;44459;43.522;24.470;2023-05-12T07:22:14;100745.28;;;12.68;68.08
57572;BME280;44459;43.522;24.470;2023-05-12T07:24:40;100740.91;;;12.71;67.35
57572;BME280;44459;43.522;24.470;2023-05-12T07:27:05;100748.94;;;12.83;67.00
57572;BME280;44459;43.522;24.470;2023-05-12T07:29:32;100749.91;;;13.06;67.67
57572;BME280;44459;43.522;24.470;2023-05-12T07:31:58;100749.03;;;13.01;66.17
57572;BME280;44459;43.522;24.470;2023-05-12T07:34:24;100752.53;;;13.00;66.28
57572;BME280;44459;43.522;24.470;2023-05-12T07:36:50;100751.69;;;13.07;64.69
57572;BME280;44459;43.522;24.470;2023-05-12T07:39:15;100757.09;;;13.24;65.82
57572;BME280;44459;43.522;24.470;2023-05-12T07:41:43;100755.34;;;13.37;64.36
57572;BME280;44459;43.522;24.470;2023-05-12T07:44:09;100750.06;;;13.40;62.47
57572;BME280;44459;43.522;24.470;2023-05-12T07:46:34;100752.75;;;13.49;62.23
57572;BME280;44459;43.522;24.470;2023-05-12T07:49:01;100757.19;;;13.59;62.53
57572;BME280;44459;43.522;24.470;2023-05-12T07:51:26;100755.41;;;13.58;61.67
57572;BME280;44459;43.522;24.470;2023-05-12T07:53:52;100761.63;;;13.72;60.89
57572;BME280;44459;43.522;24.470;2023-05-12T07:56:19;100761.63;;;13.69;60.79
57572;BME280;44459;43.522;24.470;2023-05-12T07:58:46;100762.53;;;13.76;60.95
57572;BME280;44459;43.522;24.470;2023-05-12T08:01:11;100763.44;;;13.87;59.10
57572;BME280;44459;43.522;24.470;2023-05-12T08:03:37;100751.03;;;13.86;59.05
57572;BME280;44459;43.522;24.470;2023-05-12T08:06:03;100762.56;;;14.10;61.06
57572;BME280;44459;43.522;24.470;2023-05-12T08:08:32;100761.66;;;14.31;60.52
57572;BME280;44459;43.522;24.470;2023-05-12T08:10:57;100757.25;;;14.23;57.99
57572;BME280;44459;43.522;24.470;2023-05-12T08:13:22;100745.75;;;14.08;58.71
57572;BME280;44459;43.522;24.470;2023-05-12T08:15:48;100751.06;;;14.18;58.73
57572;BME280;44459;43.522;24.470;2023-05-12T08:18:14;100751.03;;;14.02;58.56
57572;BME280;44459;43.522;24.470;2023-05-12T08:20:40;100740.44;;;14.01;59.35
57572;BME280;44459;43.522;24.470;2023-05-12T08:23:05;100744.88;;;14.00;57.13
57572;BME280;44459;43.522;24.470;2023-05-12T08:25:31;100749.28;;;13.95;57.50
57572;BME280;44459;43.522;24.470;2023-05-12T08:27:59;100754.59;;;13.85;57.12
57572;BME280;44459;43.522;24.470;2023-05-12T08:30:25;100736.03;;;14.04;58.21
57572;BME280;44459;43.522;24.470;2023-05-12T08:32:51;100743.97;;;13.92;58.22
57572;BME280;44459;43.522;24.470;2023-05-12T08:35:17;100744.88;;;13.97;58.31
57572;BME280;44459;43.522;24.470;2023-05-12T08:37:42;100748.41;;;14.15;58.55
57572;BME280;44459;43.522;24.470;2023-05-12T08:40:14;100750.19;;;14.19;56.49
57572;BME280;44459;43.522;24.470;2023-05-12T08:42:50;100751.94;;;14.21;58.09
57572;BME280;44459;43.522;24.470;2023-05-12T08:45:20;100749.28;;;14.38;58.49
57572;BME280;44459;43.522;24.470;2023-05-12T08:47:48;100757.28;;;14.35;56.95
57572;BME280;44459;43.522;24.470;2023-05-12T08:50:16;100758.16;;;14.41;57.19
57572;BME280;44459;43.522;24.470;2023-05-12T08:52:42;100755.47;;;14.32;56.87
57572;BME280;44459;43.522;24.470;2023-05-12T08:55:08;100759.03;;;14.34;57.55
57572;BME280;44459;43.522;24.470;2023-05-12T08:57:34;100756.38;;;14.42;56.65
57572;BME280;44459;43.522;24.470;2023-05-12T09:00:01;100754.59;;;14.44;57.22
57572;BME280;44459;43.522;24.470;2023-05-12T09:02:30;100760.81;;;14.49;56.96
57572;BME280;44459;43.522;24.470;2023-05-12T09:04:55;100762.56;;;14.51;57.91
57572;BME280;44459;43.522;24.470;2023-05-12T09:07:21;100757.25;;;14.54;58.94
57572;BME280;44459;43.522;24.470;2023-05-12T09:09:56;100752.78;;;14.66;58.19
57572;BME280;44459;43.522;24.470;2023-05-12T09:12:24;100755.47;;;14.61;57.41
57572;BME280;44459;43.522;24.470;2023-05-12T09:15:03;100740.44;;;14.54;56.97
57572;BME280;44459;43.522;24.470;2023-05-12T09:17:29;100753.72;;;14.57;57.18
57572;BME280;44459;43.522;24.470;2023-05-12T09:19:54;100749.28;;;14.60;58.43
57572;BME280;44459;43.522;24.470;2023-05-12T09:22:30;100746.59;;;14.70;57.19
57572;BME280;44459;43.522;24.470;2023-05-12T09:24:55;100748.38;;;14.68;56.61
57572;BME280;44459;43.522;24.470;2023-05-12T09:27:28;100749.25;;;14.71;57.15
57572;BME280;44459;43.522;24.470;2023-05-12T09:29:54;100748.38;;;14.66;54.63
57572;BME280;44459;43.522;24.470;2023-05-12T09:32:30;100744.84;;;14.67;55.97
57572;BME280;44459;43.522;24.470;2023-05-12T09:35:01;100746.56;;;14.73;57.79
57572;BME280;44459;43.522;24.470;2023-05-12T09:37:33;100744.81;;;14.73;58.19
57572;BME280;44459;43.522;24.470;2023-05-12T09:40:03;100738.59;;;14.77;57.14
57572;BME280;44459;43.522;24.470;2023-05-12T09:42:30;100738.59;;;14.80;55.94
57572;BME280;44459;43.522;24.470;2023-05-12T09:45:03;100730.63;;;14.77;56.67
57572;BME280;44459;43.522;24.470;2023-05-12T09:47:36;100747.47;;;14.75;56.70
57572;BME280;44459;43.522;24.470;2023-05-12T09:50:04;100743.91;;;14.73;56.45
57572;BME280;44459;43.522;24.470;2023-05-12T09:52:31;100737.72;;;14.78;55.13
57572;BME280;44459;43.522;24.470;2023-05-12T09:55:07;100738.63;;;14.64;54.73
57572;BME280;44459;43.522;24.470;2023-05-12T09:57:39;100732.38;;;14.80;56.64
57572;BME280;44459;43.522;24.470;2023-05-12T10:00:14;100737.69;;;14.80;55.35
57572;BME280;44459;43.522;24.470;2023-05-12T10:02:41;100743.03;;;14.81;55.57
57572;BME280;44459;43.522;24.470;2023-05-12T10:05:14;100735.03;;;14.84;55.83
57572;BME280;44459;43.522;24.470;2023-05-12T10:07:47;100740.34;;;14.84;53.17
57572;BME280;44459;43.522;24.470;2023-05-12T10:10:17;100730.59;;;14.92;53.28
57572;BME280;44459;43.522;24.470;2023-05-12T10:12:42;100734.09;;;14.99;54.73
57572;BME280;44459;43.522;24.470;2023-05-12T10:15:09;100730.56;;;14.98;54.25
57572;BME280;44459;43.522;24.470;2023-05-12T10:17:35;100730.56;;;14.95;54.18
57572;BME280;44459;43.522;24.470;2023-05-12T10:20:02;100727.94;;;14.86;53.44
57572;BME280;44459;43.522;24.470;2023-05-12T10:22:32;100743.00;;;14.84;53.25
57572;BME280;44459;43.522;24.470;2023-05-12T10:25:00;100743.84;;;14.97;54.47
57572;BME280;44459;43.522;24.470;2023-05-12T10:27:28;100738.50;;;15.00;53.58
57572;BME280;44459;43.522;24.470;2023-05-12T10:29:54;100732.31;;;14.99;53.08
57572;BME280;44459;43.522;24.470;2023-05-12T10:32:20;100735.81;;;15.07;54.04
57572;BME280;44459;43.522;24.470;2023-05-12T10:34:45;100736.69;;;15.14;53.29
57572;BME280;44459;43.522;24.470;2023-05-12T10:37:11;100732.25;;;15.15;52.96
57572;BME280;44459;43.522;24.470;2023-05-12T10:39:46;100731.34;;;15.19;53.87
57572;BME280;44459;43.522;24.470;2023-05-12T10:42:15;100726.03;;;15.19;53.27
57572;BME280;44459;43.522;24.470;2023-05-12T10:44:51;100725.06;;;15.32;53.79
57572;BME280;44459;43.522;24.470;2023-05-12T10:47:17;100714.38;;;15.44;53.85
57572;BME280;44459;43.522;24.470;2023-05-12T10:49:43;100715.22;;;15.52;51.25
57572;BME280;44459;43.522;24.470;2023-05-12T10:52:12;100719.59;;;15.62;50.20
57572;BME280;44459;43.522;24.470;2023-05-12T10:54:42;100715.19;;;15.61;50.16
57572;BME280;44459;43.522;24.470;2023-05-12T10:57:12;100708.94;;;15.62;49.13
57572;BME280;44459;43.522;24.470;2023-05-12T10:59:56;100713.28;;;15.78;50.20
57572;BME280;44459;43.522;24.470;2023-05-12T11:02:23;100715.00;;;15.84;50.01
57572;BME280;44459;43.522;24.470;2023-05-12T11:05:08;100706.94;;;15.94;49.21
57572;BME280;44459;43.522;24.470;2023-05-12T11:07:34;100720.22;;;15.99;50.57
57572;BME280;44459;43.522;24.470;2023-05-12T11:10:02;100717.53;;;16.03;49.74
57572;BME280;44459;43.522;24.470;2023-05-12T11:12:31;100712.34;;;15.85;48.66
57572;BME280;44459;43.522;24.470;2023-05-12T11:14:59;100710.56;;;15.84;49.75
57572;BME280;44459;43.522;24.470;2023-05-12T11:17:25;100705.25;;;15.84;49.23
57572;BME280;44459;43.522;24.470;2023-05-12T11:19:50;100720.28;;;15.91;49.18
57572;BME280;44459;43.522;24.470;2023-05-12T11:22:19;100717.56;;;15.97;48.85
57572;BME280;44459;43.522;24.470;2023-05-12T11:24:46;100714.97;;;15.93;49.68
57572;BME280;44459;43.522;24.470;2023-05-12T11:27:13;100709.53;;;16.00;49.90
57572;BME280;44459;43.522;24.470;2023-05-12T11:29:40;100716.63;;;16.01;48.83
57572;BME280;44459;43.522;24.470;2023-05-12T11:32:09;100701.56;;;16.03;49.18
57572;BME280;44459;43.522;24.470;2023-05-12T11:34:35;100718.44;;;15.99;47.42
57572;BME280;44459;43.522;24.470;2023-05-12T11:37:02;100706.03;;;15.97;47.56
57572;BME280;44459;43.522;24.470;2023-05-12T11:39:29;100710.44;;;16.01;48.22
57572;BME280;44459;43.522;24.470;2023-05-12T11:42:04;100715.72;;;16.05;48.36
57572;BME280;44459;43.522;24.470;2023-05-12T11:44:30;100721.88;;;16.10;48.02
57572;BME280;44459;43.522;24.470;2023-05-12T11:49:29;100723.50;;;16.31;48.62
57572;BME280;44459;43.522;24.470;2023-05-12T11:51:56;100727.03;;;16.33;49.23
57572;BME280;44459;43.522;24.470;2023-05-12T11:54:23;100732.34;;;16.33;48.39
57572;BME280;44459;43.522;24.470;2023-05-12T11:56:51;100713.75;;;16.26;48.47
57572;BME280;44459;43.522;24.470;2023-05-12T12:02:00;100726.06;;;16.39;49.91
57572;BME280;44459;43.522;24.470;2023-05-12T12:04:36;100723.50;;;16.28;45.92
57572;BME280;44459;43.522;24.470;2023-05-12T12:07:05;100722.50;;;16.40;46.93
57572;BME280;44459;43.522;24.470;2023-05-12T12:09:32;100717.03;;;16.53;46.56
57572;BME280;44459;43.522;24.470;2023-05-12T12:12:00;100719.59;;;16.67;46.50
57572;BME280;44459;43.522;24.470;2023-05-12T12:14:26;100716.81;;;16.78;46.00
57572;BME280;44459;43.522;24.470;2023-05-12T12:16:51;100717.56;;;16.89;44.53
57572;BME280;44459;43.522;24.470;2023-05-12T12:19:17;100707.66;;;17.00;46.02
57572;BME280;44459;43.522;24.470;2023-05-12T12:21:42;100711.88;;;17.18;46.36
57572;BME280;44459;43.522;24.470;2023-05-12T12:24:08;100701.41;;;17.01;44.06
57572;BME280;44459;43.522;24.470;2023-05-12T12:26:34;100704.94;;;17.01;43.61
57572;BME280;44459;43.522;24.470;2023-05-12T12:29:00;100704.00;;;17.07;43.22
57572;BME280;44459;43.522;24.470;2023-05-12T12:31:25;100706.53;;;17.18;45.29
57572;BME280;44459;43.522;24.470;2023-05-12T12:33:50;100704.53;;;17.33;45.27
57572;BME280;44459;43.522;24.470;2023-05-12T12:36:16;100695.44;;;17.48;45.24
57572;BME280;44459;43.522;24.470;2023-05-12T12:38:42;100693.56;;;17.56;43.92
57572;BME280;44459;43.522;24.470;2023-05-12T12:41:07;100684.47;;;17.68;43.38
57572;BME280;44459;43.522;24.470;2023-05-12T12:43:33;100694.31;;;17.64;43.02
57572;BME280;44459;43.522;24.470;2023-05-12T12:45:58;100697.09;;;17.58;42.98